Sprague, WA (99032)

7:35 AM PDT on September 01, 2014 (GMT -0700)
Malloy Prairie | Change Station
CLOSE
Current Station
Personal Weather Station
Location: Cheney, WA
Elevation: 2374 ft
Nearby Weather Stations

Elev 2374 ft 47.50 °N, 117.77 °W | Updated 1 second ago

Clear
Clear
39.7 °F
Feels Like 40 °F
N
1.0
Wind Variable Wind from SSW
Gusts 1.0 mph

Today
High -- | Low -- °F
--% Chance of Precip.
Yesterday
High -- | Low -- °F
Precip. -- in
6:11 AM 7:31 PM
Waxing Crescent, 41% visible
Pressure 30.03 in
Visibility 10.0 miles
Clouds Clear
Windchill 40 °F
Dew Point 39 °F
Humidity 96%
Rainfall 0.00 in
Snow Depth Not available.
UV 0 out of 12
Pollen 6.50 out of 12
Air Quality Not available.
Flu Activity Not available.
METAR KSKA 011358Z AUTO 12003KT 10SM CLR 08/04 A3003 RMK AO2 SLP169 T00770040

More Conditions Fewer Conditions

Pressure 30.03 in
Visibility 10.0 miles
Clouds Clear
Windchill 40 °F
Dew Point 39 °F
Humidity 96%
Rainfall 0.00 in
Snow Depth Not available.
UV 0 out of 12
Pollen 6.50 out of 12
Air Quality Not available.
Flu Activity Not available.
METAR KSKA 011358Z AUTO 12003KT 10SM CLR 08/04 A3003 RMK AO2 SLP169 T00770040

More Conditions Fewer Conditions

10-Day Weather Forecast

Almanac

Astronomy

Sep. 01, 2014 Rise Set
Actual Time 6:11 AM PDT 7:31 PM PDT
Civil Twilight 5:39 AM PDT 8:03 PM PDT
Nautical Twilight 5:00 AM PDT 8:41 PM PDT
Astronomical Twilight 4:19 AM PDT 9:22 PM PDT
Moon 1:28 PM PDT 11:08 PM PDT
Length of Visible Light 14h 24m
Length of Day
13h 20m
Tomorrow will be 3m 17s shorter.
Waxing Crescent, 41% of the Moon is Illuminated
Today
Waxing Crescent
Sep 2
First Quarter
Sep 8
Full
Sep 15
Last Quarter
Sep 24
New

Today's Extremes

State Highs State Lows

Community

WunderPhotos

Upload Photos

1,749,248 photos uploaded!

Nearby

Snow Depth

Station Depth Elevation
Quartz Peak 2 in 4700 ft
Sourdough Gulch 0 in 4000 ft
Spruce Springs 1 in 5700 ft
Touchet 0 in 5530 ft
Moses Mountain 1 in 5300 ft

Earthquake Activity

City Distance Mag. Time & Date
No recent earthquake activity has been reported nearby.
Minimum magnitude displayed is 2.5.

Coastal Water Temperatures

Place Temperature
No Stations Reporting

Nearby Weather Stations